Time;durP1;ratioP1;P1;durP2;ratioP2;P2;SDS_P1;SDS_P2;PMS_P1;PMS_P2;Temp;Humidity;BMP_temperature;BMP_pressure;BME280_temperature;BME280_humidity;BME280_pressure;Samples;Min_cycle;Max_cycle;Signal;HPM_P1;HPM_P2
2021/04/01 00:00:38;;;;;;;16.73;8.90;;;11.40;74.80;;;;;;5015777;28;20093;-87
2021/04/01 00:03:05;;;;;;;15.88;7.85;;;11.50;74.30;;;;;;5015774;28;20042;-87
2021/04/01 00:05:32;;;;;;;14.40;7.20;;;11.40;76.80;;;;;;4998489;28;20124;-87
2021/04/01 00:08:02;;;;;;;21.58;8.60;;;11.30;77.80;;;;;;5015476;28;20521;-88
2021/04/01 00:10:38;;;;;;;20.73;8.65;;;11.30;77.30;;;;;;5016749;28;20077;-87
2021/04/01 00:13:05;;;;;;;19.70;8.70;;;11.30;76.00;;;;;;4997509;28;20046;-87
2021/04/01 00:15:33;;;;;;;18.15;8.82;;;11.30;74.10;;;;;;5014698;28;20054;-87
2021/04/01 00:18:01;;;;;;;21.17;9.13;;;11.50;74.30;;;;;;5015738;28;20100;-86
2021/04/01 00:20:30;;;;;;;19.33;9.70;;;11.60;73.20;;;;;;4998410;28;20065;-87
2021/04/01 00:23:02;;;;;;;15.60;8.45;;;11.50;72.70;;;;;;5011863;28;20430;-86
2021/04/01 00:25:29;;;;;;;22.55;9.05;;;11.50;73.20;;;;;;5014648;28;20111;-87
2021/04/01 00:27:57;;;;;;;17.00;8.07;;;11.40;73.70;;;;;;5016699;28;20038;-87
2021/04/01 00:30:25;;;;;;;18.88;9.05;;;11.30;73.60;;;;;;4979653;28;20047;-87
2021/04/01 00:32:54;;;;;;;18.88;9.32;;;11.40;73.50;;;;;;5013913;28;20089;-87
2021/04/01 00:35:21;;;;;;;17.85;8.32;;;11.40;73.30;;;;;;5020321;28;20467;-88
2021/04/01 00:37:47;;;;;;;18.13;9.27;;;11.40;74.80;;;;;;5029558;28;20077;-87
2021/04/01 00:40:14;;;;;;;17.48;8.35;;;11.30;75.00;;;;;;5010767;28;20053;-85
2021/04/01 00:42:43;;;;;;;15.38;8.15;;;11.30;74.20;;;;;;5031387;28;20049;-87
2021/04/01 00:45:12;;;;;;;22.80;9.32;;;11.30;75.30;;;;;;5030706;28;20057;-87
2021/04/01 00:47:41;;;;;;;17.10;8.27;;;11.20;77.70;;;;;;5029776;28;20045;-86
2021/04/01 00:50:10;;;;;;;19.02;7.88;;;11.10;77.60;;;;;;5008198;28;20092;-87
2021/04/01 00:52:37;;;;;;;19.33;9.68;;;11.00;78.80;;;;;;5015884;28;20107;-86
2021/04/01 00:55:06;;;;;;;17.80;8.55;;;10.90;80.00;;;;;;5015261;28;20054;-86
2021/04/01 00:57:33;;;;;;;16.00;8.93;;;10.80;83.40;;;;;;5015044;28;20046;-86
2021/04/01 01:00:00;;;;;;;23.83;8.85;;;10.80;82.90;;;;;;5015345;28;20042;-88
2021/04/01 01:02:27;;;;;;;23.08;8.80;;;10.70;83.80;;;;;;4997717;28;20499;-86
2021/04/01 01:04:54;;;;;;;21.00;9.43;;;10.70;84.40;;;;;;5014297;28;20104;-87
2021/04/01 01:07:21;;;;;;;17.20;8.52;;;10.70;85.30;;;;;;4997895;28;20056;-86
2021/04/01 01:09:50;;;;;;;14.80;8.40;;;10.70;85.90;;;;;;5015038;28;20050;-86
2021/04/01 01:12:16;;;;;;;17.40;8.10;;;10.70;86.70;;;;;;5015009;28;20145;-86
2021/04/01 01:14:45;;;;;;;17.23;8.73;;;10.70;88.20;;;;;;5014151;28;20052;-86
2021/04/01 01:17:15;;;;;;;19.52;8.32;;;10.60;90.20;;;;;;5018994;28;20556;-88
2021/04/01 01:19:48;;;;;;;18.48;8.27;;;10.60;91.40;;;;;;5015140;28;20148;-88
2021/04/01 01:22:16;;;;;;;17.55;8.48;;;10.60;91.70;;;;;;5013642;28;20144;-87
2021/04/01 01:24:43;;;;;;;14.63;8.00;;;10.60;91.90;;;;;;5010488;28;20454;-88
2021/04/01 01:27:09;;;;;;;23.02;7.60;;;10.50;93.00;;;;;;4993947;28;20472;-88
2021/04/01 01:29:36;;;;;;;26.17;9.07;;;10.40;93.80;;;;;;5001967;28;20051;-87
2021/04/01 01:32:03;;;;;;;14.63;7.97;;;10.40;95.70;;;;;;4993341;28;20050;-87
2021/04/01 01:34:29;;;;;;;17.95;7.88;;;10.30;96.50;;;;;;5010491;28;20144;-87
2021/04/01 01:36:58;;;;;;;15.52;8.23;;;10.30;98.50;;;;;;5016160;28;20105;-87
2021/04/01 01:39:29;;;;;;;14.23;8.23;;;10.20;99.40;;;;;;4994227;28;20096;-87
2021/04/01 01:41:59;;;;;;;13.75;7.45;;;10.10;99.90;;;;;;4992054;28;20060;-87
2021/04/01 01:44:26;;;;;;;18.02;7.80;;;9.90;99.90;;;;;;4993643;28;20068;-85
2021/04/01 01:46:52;;;;;;;14.18;7.15;;;9.80;99.90;;;;;;5009069;28;20442;-88
2021/04/01 01:49:19;;;;;;;17.42;8.20;;;9.70;99.90;;;;;;5010019;28;20124;-88
2021/04/01 01:51:45;;;;;;;17.48;7.65;;;9.70;99.90;;;;;;4993209;28;20080;-86
2021/04/01 01:54:14;;;;;;;13.35;6.90;;;9.70;99.90;;;;;;5010994;28;20078;-86
2021/04/01 01:56:40;;;;;;;16.02;6.72;;;9.70;99.90;;;;;;5010647;28;20129;-88
2021/04/01 01:59:06;;;;;;;15.82;6.68;;;9.70;99.90;;;;;;5009396;28;20083;-87
2021/04/01 02:01:35;;;;;;;16.48;6.47;;;9.70;99.90;;;;;;5009761;28;20057;-90
2021/04/01 02:04:06;;;;;;;22.95;7.57;;;9.70;99.90;;;;;;5011187;28;20060;-87
2021/04/01 02:06:35;;;;;;;12.65;6.93;;;9.70;99.90;;;;;;5010195;28;20053;-87
2021/04/01 02:09:01;;;;;;;14.93;7.00;;;9.60;99.90;;;;;;5010817;28;20362;-87
2021/04/01 02:11:28;;;;;;;15.80;8.05;;;9.60;99.90;;;;;;4978034;28;20052;-86
2021/04/01 02:13:56;;;;;;;18.60;6.78;;;9.60;99.90;;;;;;5010903;28;20042;-87
2021/04/01 02:16:23;;;;;;;16.85;7.90;;;9.50;99.90;;;;;;5011884;28;20341;-86
2021/04/01 02:18:49;;;;;;;12.65;6.47;;;9.50;99.90;;;;;;4991510;28;20047;-87
2021/04/01 02:21:23;;;;;;;17.50;6.10;;;9.40;99.90;;;;;;5010603;28;20060;-86
2021/04/01 02:23:50;;;;;;;14.05;7.00;;;9.40;99.90;;;;;;4996325;28;20411;-86
2021/04/01 02:26:17;;;;;;;14.25;6.97;;;9.50;99.90;;;;;;4979173;28;20104;-88
2021/04/01 02:28:46;;;;;;;14.73;6.95;;;9.50;99.90;;;;;;5011768;28;20038;-86
2021/04/01 02:31:19;;;;;;;15.85;7.03;;;9.40;99.90;;;;;;5013722;28;20056;-86
2021/04/01 02:33:47;;;;;;;13.43;6.68;;;9.50;99.90;;;;;;5013418;28;20137;-86
2021/04/01 02:36:18;;;;;;;14.25;6.60;;;9.50;99.90;;;;;;5013826;28;20141;-86
2021/04/01 02:38:47;;;;;;;18.58;7.00;;;9.60;99.90;;;;;;5017174;28;20052;-87
2021/04/01 02:41:15;;;;;;;14.52;7.05;;;9.50;99.90;;;;;;5021786;28;20046;-88
2021/04/01 02:43:42;;;;;;;16.98;6.97;;;9.40;99.90;;;;;;5008701;28;20117;-86
2021/04/01 02:46:08;;;;;;;16.17;6.63;;;9.30;99.90;;;;;;5019345;28;20124;-87
2021/04/01 02:48:35;;;;;;;11.68;7.07;;;9.20;99.90;;;;;;5019041;28;20125;-87
2021/04/01 02:51:04;;;;;;;14.35;6.93;;;9.20;99.90;;;;;;5013270;28;20545;-87
2021/04/01 02:53:32;;;;;;;18.83;7.50;;;9.10;99.90;;;;;;5013175;28;20449;-87
2021/04/01 02:55:59;;;;;;;17.02;6.68;;;9.10;99.90;;;;;;5013124;28;20053;-88
2021/04/01 02:58:25;;;;;;;17.60;7.20;;;9.20;99.90;;;;;;5012585;28;20437;-87
2021/04/01 03:00:53;;;;;;;13.82;6.43;;;9.20;99.90;;;;;;5013629;28;20129;-87
2021/04/01 03:03:24;;;;;;;13.88;7.05;;;9.30;99.90;;;;;;5012627;28;20466;-87
2021/04/01 03:05:55;;;;;;;14.10;7.38;;;9.40;99.90;;;;;;4995273;28;20085;-88
2021/04/01 03:08:23;;;;;;;14.10;7.43;;;9.30;99.90;;;;;;4995679;28;20132;-85
2021/04/01 03:10:49;;;;;;;17.33;7.03;;;9.20;99.90;;;;;;4996129;28;20045;-85
2021/04/01 03:13:16;;;;;;;12.60;6.43;;;9.10;99.90;;;;;;4995814;28;20449;-85
2021/04/01 03:15:49;;;;;;;12.43;6.75;;;9.10;99.90;;;;;;5015798;28;20049;-86
2021/04/01 03:18:17;;;;;;;12.95;6.88;;;9.00;99.90;;;;;;5012828;28;20046;-86
2021/04/01 03:20:43;;;;;;;14.20;6.80;;;8.90;99.90;;;;;;4995508;28;20074;-87
2021/04/01 03:23:12;;;;;;;14.80;6.80;;;8.80;99.90;;;;;;5011879;28;20127;-87
2021/04/01 03:25:39;;;;;;;15.25;6.72;;;8.90;99.90;;;;;;5010606;28;20057;-87
2021/04/01 03:28:09;;;;;;;16.27;6.68;;;8.90;99.90;;;;;;5011159;28;20129;-88
2021/04/01 03:30:38;;;;;;;10.98;6.68;;;9.00;99.90;;;;;;5009727;28;20157;-86
2021/04/01 03:33:05;;;;;;;15.00;6.80;;;9.10;99.90;;;;;;5012709;28;20136;-87
2021/04/01 03:35:32;;;;;;;14.88;6.07;;;9.10;99.90;;;;;;4995391;28;20141;-87
2021/04/01 03:38:04;;;;;;;13.25;6.03;;;9.20;99.90;;;;;;5012434;28;20144;-87
2021/04/01 03:40:34;;;;;;;14.95;6.30;;;9.30;99.90;;;;;;4995486;28;20449;-86
2021/04/01 03:43:03;;;;;;;11.27;6.22;;;9.40;99.90;;;;;;5012695;28;20434;-89
2021/04/01 03:45:30;;;;;;;17.38;6.75;;;9.50;99.90;;;;;;5012715;28;20172;-86
2021/04/01 03:47:58;;;;;;;15.52;6.75;;;9.50;99.90;;;;;;5012924;28;20151;-87
2021/04/01 03:50:31;;;;;;;16.23;6.25;;;9.50;99.90;;;;;;4995650;28;20618;-86
2021/04/01 03:52:57;;;;;;;17.02;6.85;;;9.60;99.90;;;;;;4990641;28;20046;-86
2021/04/01 04:00:39;;;;;;;;;;;9.80;99.90;;;;;;5015470;28;20062;-86
2021/04/01 04:15:51;;;;;;;10.85;6.00;;;9.70;99.90;;;;;;5013674;28;20490;-88
2021/04/01 04:18:21;;;;;;;17.83;6.75;;;9.70;99.90;;;;;;5016075;28;20050;-86
2021/04/01 04:20:48;;;;;;;13.02;6.10;;;9.70;99.90;;;;;;5015379;28;20081;-87
2021/04/01 04:23:19;;;;;;;11.82;5.75;;;9.50;99.90;;;;;;5015395;28;20526;-86
2021/04/01 04:25:47;;;;;;;13.70;6.03;;;9.50;99.90;;;;;;5015866;28;20137;-87
2021/04/01 04:28:32;;;;;;;17.15;6.68;;;9.40;99.90;;;;;;4998492;28;20073;-86
2021/04/01 04:31:05;;;;;;;9.80;5.47;;;9.30;99.90;;;;;;5002468;28;20045;-88
2021/04/01 04:33:34;;;;;;;12.32;6.32;;;9.20;99.90;;;;;;5013897;28;20038;-86
2021/04/01 04:36:04;;;;;;;11.70;5.75;;;9.20;99.90;;;;;;5015006;28;20079;-88
2021/04/01 04:38:30;;;;;;;12.82;6.22;;;9.20;99.90;;;;;;5015195;28;20489;-89
2021/04/01 04:40:57;;;;;;;12.60;6.28;;;9.20;99.90;;;;;;5015554;28;20443;-89
2021/04/01 04:43:26;;;;;;;15.25;6.78;;;9.20;99.90;;;;;;4995636;28;20102;-86
2021/04/01 04:45:56;;;;;;;14.50;6.03;;;9.20;99.90;;;;;;5015914;28;20048;-89
2021/04/01 04:48:33;;;;;;;12.23;6.57;;;9.40;99.90;;;;;;5014940;28;20042;-88
2021/04/01 04:51:05;;;;;;;15.00;5.90;;;9.40;99.90;;;;;;5002657;28;20089;-88
2021/04/01 04:53:33;;;;;;;12.00;5.95;;;9.50;99.90;;;;;;5016702;28;20140;-86
2021/04/01 04:56:17;;;;;;;19.23;6.45;;;9.50;99.90;;;;;;5015181;28;20056;-88
2021/04/01 05:09:06;;;;;;;15.13;6.93;;;9.40;99.90;;;;;;5014188;28;20498;-87
2021/04/01 05:11:37;;;;;;;15.23;6.97;;;9.40;99.90;;;;;;4992498;28;20531;-88
2021/04/01 05:14:04;;;;;;;16.08;6.70;;;9.30;99.90;;;;;;4998022;28;20129;-90
2021/04/01 05:16:32;;;;;;;15.00;7.05;;;9.20;99.90;;;;;;5015396;28;20383;-90
2021/04/01 05:19:00;;;;;;;12.40;6.13;;;9.20;99.90;;;;;;5010696;28;20141;-87
2021/04/01 05:21:43;;;;;;;15.07;6.60;;;9.20;99.90;;;;;;4995140;28;20125;-86
2021/04/01 05:24:13;;;;;;;13.65;6.65;;;9.30;99.90;;;;;;5014896;28;20057;-85
2021/04/01 05:29:30;;;;;;;14.13;6.28;;;9.30;99.90;;;;;;5014376;28;20050;-85
2021/04/01 05:32:00;;;;;;;14.15;6.28;;;9.30;99.90;;;;;;5008474;28;20046;-87
2021/04/01 05:34:28;;;;;;;15.48;6.38;;;9.30;99.90;;;;;;4996890;28;20104;-86
2021/04/01 05:36:55;;;;;;;12.32;7.10;;;9.30;99.90;;;;;;5014034;28;20414;-85
2021/04/01 05:39:43;;;;;;;11.02;5.82;;;9.40;99.90;;;;;;5011738;28;20074;-87
2021/04/01 05:42:09;;;;;;;12.30;6.55;;;9.50;99.90;;;;;;5012760;28;20081;-87
2021/04/01 05:44:42;;;;;;;13.57;6.25;;;9.60;99.90;;;;;;4998699;28;20084;-87
2021/04/01 05:47:20;;;;;;;13.13;6.15;;;9.60;99.90;;;;;;5013865;28;20136;-87
2021/04/01 05:50:11;;;;;;;12.38;5.82;;;9.60;99.90;;;;;;5013433;28;20159;-88
2021/04/01 06:06:11;;;;;;;11.23;5.55;;;10.20;99.90;;;;;;5012433;28;20463;-88
2021/04/01 06:08:50;;;;;;;14.63;5.78;;;10.30;99.90;;;;;;4987279;28;20077;-89
2021/04/01 06:11:21;;;;;;;10.18;6.00;;;10.40;99.90;;;;;;5011899;28;20399;-88
2021/04/01 06:14:12;;;;;;;11.70;6.13;;;10.50;99.90;;;;;;5012892;28;20172;-87
2021/04/01 06:16:46;;;;;;;19.45;5.97;;;10.70;99.20;;;;;;5020065;28;20050;-88
2021/04/01 06:19:17;;;;;;;14.07;5.57;;;11.00;96.30;;;;;;5017488;28;20434;-88
2021/04/01 06:21:45;;;;;;;9.73;5.70;;;11.10;97.60;;;;;;5015619;28;20057;-89
2021/04/01 06:24:27;;;;;;;15.10;6.55;;;11.30;98.60;;;;;;5014394;28;20070;-88
2021/04/01 06:27:15;;;;;;;12.77;5.97;;;11.30;98.30;;;;;;5024288;28;20188;-87
2021/04/01 06:32:37;;;;;;;17.83;6.30;;;11.70;96.80;;;;;;5026513;28;20085;-89
2021/04/01 06:35:19;;;;;;;13.48;5.88;;;12.10;94.70;;;;;;5023007;28;20358;-90
2021/04/01 06:38:19;;;;;;;14.45;6.53;;;12.50;92.90;;;;;;5010139;28;20046;-89
2021/04/01 06:40:54;;;;;;;18.38;5.65;;;12.90;90.90;;;;;;5020987;28;20069;-91
2021/04/01 06:43:56;;;;;;;8.75;5.15;;;13.40;87.50;;;;;;5011799;28;20061;-90
2021/04/01 06:46:30;;;;;;;11.25;5.32;;;13.90;81.80;;;;;;5008482;28;20057;-88
2021/04/01 06:51:48;;;;;;;12.30;5.53;;;14.80;72.10;;;;;;5012809;28;20053;-92
2021/04/01 06:54:32;;;;;;;11.57;4.78;;;15.50;70.60;;;;;;5014484;28;20073;-89
2021/04/01 06:58:03;;;;;;;18.50;5.13;;;16.30;65.10;;;;;;5009850;28;20396;-91
2021/04/01 07:03:16;;;;;;;10.48;4.80;;;17.60;57.90;;;;;;5013218;28;20115;-87
2021/04/01 07:06:03;;;;;;;14.00;4.63;;;18.00;56.60;;;;;;5012194;28;20088;-88
2021/04/01 07:09:04;;;;;;;9.75;4.78;;;18.20;55.40;;;;;;4999347;28;20359;-87
2021/04/01 07:11:34;;;;;;;13.95;4.93;;;18.10;54.60;;;;;;5012845;28;20045;-88
2021/04/01 07:14:16;;;;;;;;;;;17.90;55.30;;;;;;4990536;28;20062;-87
2021/04/01 07:16:58;;;;;;;17.25;5.20;;;18.00;55.90;;;;;;5012886;28;19936;-87
2021/04/01 07:44:52;;;;;;;15.60;4.88;;;19.70;53.10;;;;;;5014485;28;20132;-89
2021/04/01 07:47:26;;;;;;;8.75;4.45;;;19.80;54.00;;;;;;5013290;28;20050;-87
2021/04/01 07:49:55;;;;;;;18.40;5.13;;;20.00;53.50;;;;;;5018490;28;20050;-88
2021/04/01 07:52:32;;;;;;;11.38;4.72;;;20.20;53.30;;;;;;5006174;28;20140;-87
2021/04/01 08:06:21;;;;;;;6.72;3.35;;;22.80;48.30;;;;;;5015031;28;20513;-87
2021/04/01 08:12:52;;;;;;;;;;;;;;;;;;;;;
2021/04/01 08:15:41;;;;;;;10.30;3.25;;;24.10;42.50;;;;;;5010735;28;20050;-88
2021/04/01 08:18:51;;;;;;;;;;;;;;;;;;;;;
2021/04/01 08:21:38;;;;;;;9.07;2.78;;;23.80;44.70;;;;;;5013824;28;20049;-90
2021/04/01 08:24:34;;;;;;;11.43;3.42;;;24.70;42.30;;;;;;5015761;28;20079;-90
2021/04/01 08:34:20;;;;;;;10.15;3.17;;;25.40;40.50;;;;;;5013840;28;20057;-88
2021/04/01 08:36:49;;;;;;;11.48;3.38;;;25.50;41.10;;;;;;5015212;28;20136;-88
2021/04/01 08:39:38;;;;;;;11.15;2.30;;;25.90;40.10;;;;;;5008701;28;20384;-88
2021/04/01 08:42:50;;;;;;;13.95;3.38;;;26.80;37.90;;;;;;5010582;28;20137;-88
2021/04/01 08:46:16;;;;;;;5.93;2.53;;;26.50;37.20;;;;;;5010954;28;20053;-90
2021/04/01 08:49:38;;;;;;;6.95;3.17;;;25.70;38.60;;;;;;5010018;28;20046;-87
2021/04/01 08:52:15;;;;;;;7.65;2.70;;;26.10;38.90;;;;;;5012670;28;20131;-91
2021/04/01 08:55:04;;;;;;;4.90;2.50;;;26.40;37.00;;;;;;4998656;28;20479;-87
2021/04/01 08:58:08;;;;;;;4.25;2.25;;;26.20;38.30;;;;;;5013647;28;20450;-87
2021/04/01 09:00:42;;;;;;;5.55;2.47;;;26.60;36.90;;;;;;5006437;28;20068;-89
2021/04/01 09:03:12;;;;;;;9.30;2.35;;;26.50;36.50;;;;;;5012686;28;20050;-88
2021/04/01 09:05:58;;;;;;;11.15;2.95;;;26.90;36.10;;;;;;5014565;28;20053;-89
2021/04/01 09:08:34;;;;;;;7.18;2.72;;;28.00;35.80;;;;;;4998258;28;20061;-90
2021/04/01 09:11:17;;;;;;;8.63;2.80;;;27.10;35.00;;;;;;5015092;28;20436;-88
2021/04/01 09:13:53;;;;;;;6.50;2.38;;;26.90;36.40;;;;;;5019229;28;20132;-89
2021/04/01 09:17:09;;;;;;;;;;;;;;;;;;;;;
2021/04/01 09:19:52;;;;;;;8.32;3.15;;;27.00;36.00;;;;;;5027828;28;20045;-92
2021/04/01 09:23:15;;;;;;;;;;;;;;;;;;;;;
2021/04/01 09:26:05;;;;;;;6.07;2.20;;;28.50;33.20;;;;;;4960472;28;19932;-88
2021/04/01 09:28:41;;;;;;;5.25;1.95;;;28.00;33.20;;;;;;4953098;28;20048;-91
2021/04/01 09:31:10;;;;;;;4.85;2.00;;;28.10;33.80;;;;;;4955526;28;20420;-88
2021/04/01 09:33:44;;;;;;;5.53;2.30;;;27.50;33.80;;;;;;4958159;28;20058;-88
2021/04/01 09:36:18;;;;;;;6.13;2.10;;;26.80;34.70;;;;;;4939941;29;20043;-91
2021/04/01 09:40:00;;;;;;;;;;;;;;;;;;;;;
2021/04/01 09:42:53;;;;;;;;;;;;;;;;;;;;;
2021/04/01 09:45:34;;;;;;;5.13;2.00;;;25.90;36.50;;;;;;4926178;29;20059;-88
2021/04/01 09:48:23;;;;;;;7.00;2.83;;;25.50;37.40;;;;;;4905394;29;20051;-90
2021/04/01 09:50:59;;;;;;;5.90;2.20;;;25.40;37.70;;;;;;4907212;29;20048;-90
2021/04/01 09:53:58;;;;;;;;;;;;;;;;;;;;;
2021/04/01 09:57:01;;;;;;;5.80;2.53;;;25.20;37.60;;;;;;4878995;29;20053;-88
2021/04/01 10:00:08;;;;;;;8.90;2.78;;;25.30;37.80;;;;;;4920265;29;20358;-89
2021/04/01 10:03:11;;;;;;;11.85;2.67;;;25.20;38.90;;;;;;4933663;29;20071;-90
2021/04/01 10:05:47;;;;;;;5.55;2.30;;;26.10;37.00;;;;;;4934354;29;20068;-90
2021/04/01 10:08:26;;;;;;;5.65;2.00;;;27.10;36.20;;;;;;4937002;29;20113;-89
2021/04/01 10:11:11;;;;;;;8.65;2.40;;;28.10;34.90;;;;;;4934817;29;20055;-88
2021/04/01 10:13:38;;;;;;;7.47;2.30;;;28.40;33.20;;;;;;4934514;29;20060;-90
2021/04/01 10:16:23;;;;;;;9.75;2.20;;;29.10;32.90;;;;;;4938506;29;20142;-90
2021/04/01 10:18:53;;;;;;;9.35;2.70;;;29.20;34.10;;;;;;4940020;29;20438;-87
2021/04/01 10:21:21;;;;;;;7.13;2.95;;;29.70;32.70;;;;;;4945662;29;20125;-90
2021/04/01 10:23:58;;;;;;;7.32;3.00;;;30.50;32.10;;;;;;4946621;29;20055;-90
2021/04/01 10:26:34;;;;;;;9.00;2.17;;;31.00;32.60;;;;;;4953594;28;20056;-90
2021/04/01 10:29:15;;;;;;;8.40;2.42;;;31.00;31.90;;;;;;5006879;28;20443;-89
2021/04/01 10:31:52;;;;;;;7.05;2.20;;;31.50;31.40;;;;;;4996786;28;20353;-87
2021/04/01 10:34:39;;;;;;;4.85;2.58;;;32.80;30.30;;;;;;5013497;28;20050;-89
2021/04/01 10:37:22;;;;;;;5.38;2.17;;;33.00;28.30;;;;;;5012863;28;20045;-90
2021/04/01 10:43:58;;;;;;;7.97;2.70;;;33.90;26.60;;;;;;4963591;28;20085;-90
2021/04/01 10:46:30;;;;;;;8.02;2.05;;;33.60;27.60;;;;;;5025675;28;20106;-90
2021/04/01 10:49:52;;;;;;;7.03;2.22;;;33.60;27.40;;;;;;5025984;28;20064;-89
2021/04/01 10:52:52;;;;;;;7.68;2.40;;;32.40;27.90;;;;;;4976929;28;20055;-89
2021/04/01 10:55:31;;;;;;;5.55;2.53;;;32.00;28.30;;;;;;4991491;28;20094;-88
2021/04/01 10:58:08;;;;;;;5.53;2.40;;;31.70;28.80;;;;;;4986436;28;20142;-90
2021/04/01 11:00:37;;;;;;;6.50;2.28;;;31.30;28.50;;;;;;4973216;28;20054;-91
2021/04/01 11:03:06;;;;;;;8.13;2.38;;;31.20;29.50;;;;;;4973308;28;20051;-90
2021/04/01 11:05:36;;;;;;;7.65;2.60;;;31.90;28.40;;;;;;4957897;28;20059;-91
2021/04/01 11:08:07;;;;;;;9.80;2.42;;;32.30;31.70;;;;;;4971768;28;20050;-92
2021/04/01 11:10:42;;;;;;;8.10;2.03;;;32.50;28.90;;;;;;5005610;28;20127;-89
2021/04/01 11:13:35;;;;;;;4.72;2.40;;;33.90;27.90;;;;;;5012312;28;20447;-90
2021/04/01 11:16:04;;;;;;;6.05;2.28;;;33.90;26.60;;;;;;4993472;28;20057;-91
2021/04/01 11:18:34;;;;;;;7.03;2.10;;;31.60;28.30;;;;;;5013051;28;20331;-90
2021/04/01 11:21:02;;;;;;;6.60;2.50;;;29.80;29.80;;;;;;5013026;28;20058;-90
2021/04/01 11:23:54;;;;;;;5.45;2.22;;;29.90;32.80;;;;;;5010355;28;20329;-90
2021/04/01 11:26:31;;;;;;;5.75;2.22;;;30.90;31.00;;;;;;5013061;28;20359;-90
2021/04/01 11:29:10;;;;;;;4.60;1.88;;;32.20;28.00;;;;;;5018764;28;20038;-88
2021/04/01 11:31:37;;;;;;;8.02;2.38;;;33.10;27.50;;;;;;5006300;28;20050;-89
2021/04/01 11:34:07;;;;;;;6.13;2.00;;;33.80;26.70;;;;;;5012796;28;20490;-89
2021/04/01 11:36:41;;;;;;;6.55;2.28;;;34.10;27.00;;;;;;5004123;28;20046;-88
2021/04/01 11:39:26;;;;;;;9.07;2.40;;;34.40;26.40;;;;;;5013718;28;20053;-89
2021/04/01 11:41:56;;;;;;;7.15;1.90;;;34.50;26.10;;;;;;5008140;28;20050;-89
2021/04/01 11:44:25;;;;;;;8.48;2.60;;;34.10;26.00;;;;;;5000528;28;20110;-89
2021/04/01 11:46:52;;;;;;;8.02;1.80;;;34.60;27.70;;;;;;5028205;28;20069;-89
2021/04/01 11:49:45;;;;;;;5.95;2.20;;;34.90;25.60;;;;;;5012372;28;20038;-91
2021/04/01 11:52:16;;;;;;;5.55;1.90;;;33.00;26.40;;;;;;5021502;28;20077;-90
2021/04/01 11:54:45;;;;;;;3.30;1.73;;;32.00;28.60;;;;;;5019802;28;20041;-89
2021/04/01 11:57:20;;;;;;;11.32;2.28;;;32.50;27.10;;;;;;5017028;28;20085;-91
2021/04/01 11:59:54;;;;;;;6.35;2.08;;;32.40;27.20;;;;;;5025799;28;20057;-90
2021/04/01 12:02:23;;;;;;;4.40;1.73;;;32.70;26.50;;;;;;5022796;28;20056;-88
2021/04/01 12:04:53;;;;;;;7.22;2.13;;;32.70;27.50;;;;;;5028564;28;20070;-86
2021/04/01 12:07:20;;;;;;;4.75;2.20;;;32.70;28.40;;;;;;5027798;28;20029;-90
2021/04/01 12:09:49;;;;;;;5.13;1.75;;;33.60;28.10;;;;;;5033137;28;20050;-89
2021/04/01 12:12:29;;;;;;;5.85;2.10;;;35.50;26.10;;;;;;5032487;28;20143;-89
2021/04/01 12:15:04;;;;;;;5.37;1.83;;;36.30;24.40;;;;;;5016307;28;20546;-91
2021/04/01 12:17:38;;;;;;;3.58;1.80;;;35.00;25.50;;;;;;5033269;28;20050;-89
2021/04/01 12:20:13;;;;;;;5.78;1.80;;;33.70;26.00;;;;;;5014761;28;20054;-90
2021/04/01 12:22:47;;;;;;;4.03;1.63;;;32.00;28.00;;;;;;5018380;28;20152;-88
2021/04/01 12:25:19;;;;;;;4.72;1.75;;;30.80;28.30;;;;;;5015322;28;20046;-89
2021/04/01 12:27:51;;;;;;;3.25;1.48;;;30.10;30.00;;;;;;5012254;28;20053;-90
2021/04/01 12:30:28;;;;;;;5.50;1.90;;;29.90;30.70;;;;;;5015015;28;20451;-89
2021/04/01 12:33:19;;;;;;;2.88;1.50;;;29.90;29.90;;;;;;5010569;28;20054;-89
2021/04/01 12:36:09;;;;;;;5.95;1.77;;;30.10;30.60;;;;;;5014189;28;20081;-90
2021/04/01 12:38:46;;;;;;;5.93;1.77;;;31.50;27.90;;;;;;5015424;28;20100;-91
2021/04/01 12:41:32;;;;;;;8.48;1.70;;;32.90;26.90;;;;;;5015285;28;20081;-93
2021/04/01 12:44:29;;;;;;;;;;;;;;;;;;;;;
2021/04/01 12:46:56;;;;;;;5.65;1.40;;;33.50;25.70;;;;;;4935694;29;20058;-89
2021/04/01 12:49:42;;;;;;;4.38;1.30;;;33.60;26.30;;;;;;4935900;29;20083;-88
2021/04/01 12:52:10;;;;;;;3.95;1.90;;;33.70;27.10;;;;;;4937672;29;20052;-91
2021/04/01 12:54:42;;;;;;;2.88;1.38;;;33.90;26.80;;;;;;4936378;29;20155;-91
2021/04/01 12:57:17;;;;;;;6.68;1.35;;;33.80;26.60;;;;;;4935138;29;20469;-89
2021/04/01 13:00:12;;;;;;;6.25;1.73;;;35.00;24.60;;;;;;4935140;29;20067;-90
2021/04/01 13:02:52;;;;;;;5.43;1.50;;;35.50;25.30;;;;;;5015518;28;20058;-88
2021/04/01 13:05:19;;;;;;;5.80;1.40;;;34.60;25.80;;;;;;5006461;28;20081;-90
2021/04/01 13:10:45;;;;;;;5.32;1.60;;;35.30;25.80;;;;;;5015244;28;20104;-88
2021/04/01 13:13:14;;;;;;;2.80;1.50;;;35.60;26.10;;;;;;5015609;28;20077;-89
2021/04/01 13:15:41;;;;;;;4.43;1.48;;;35.40;25.30;;;;;;5015516;28;20080;-88
2021/04/01 13:18:12;;;;;;;2.60;1.17;;;34.90;23.90;;;;;;5014871;28;20056;-90
2021/04/01 13:20:40;;;;;;;3.97;1.40;;;35.30;25.00;;;;;;5013136;28;20042;-89
2021/04/01 13:25:34;;;;;;;4.68;1.30;;;35.50;24.50;;;;;;5014137;28;20367;-89
2021/04/01 13:28:13;;;;;;;4.45;1.60;;;35.80;23.60;;;;;;5010585;28;20046;-91
2021/04/01 13:30:42;;;;;;;6.97;1.50;;;35.10;24.50;;;;;;5009946;28;20077;-91
2021/04/01 13:36:17;;;;;;;6.07;1.45;;;34.90;24.40;;;;;;5015491;28;20050;-90
2021/04/01 13:38:47;;;;;;;3.83;1.30;;;35.60;23.90;;;;;;5010367;28;20088;-90
2021/04/01 13:41:18;;;;;;;7.57;1.90;;;35.20;23.90;;;;;;5030781;28;20050;-91
2021/04/01 13:43:45;;;;;;;6.35;1.55;;;34.50;24.90;;;;;;5010868;28;20037;-90
2021/04/01 13:46:14;;;;;;;8.02;2.10;;;34.00;25.40;;;;;;5009330;28;20057;-90
2021/04/01 13:48:42;;;;;;;5.45;1.70;;;33.80;25.30;;;;;;5014747;28;20062;-90
2021/04/01 13:51:17;;;;;;;7.88;2.15;;;34.10;25.00;;;;;;5017863;28;20086;-89
2021/04/01 13:54:27;;;;;;;7.38;2.03;;;34.30;24.70;;;;;;5019094;28;20060;-91
2021/04/01 13:57:30;;;;;;;6.95;2.00;;;33.50;25.80;;;;;;5014079;28;20068;-89
2021/04/01 14:09:08;;;;;;;10.60;2.30;;;31.50;26.50;;;;;;5015096;28;20141;-88
2021/04/01 14:11:44;;;;;;;9.20;2.00;;;30.90;27.30;;;;;;5012372;28;20085;-90
2021/04/01 14:14:16;;;;;;;6.70;2.33;;;29.10;29.50;;;;;;5014525;28;20510;-89
2021/04/01 14:21:24;;;;;;;7.68;2.28;;;28.10;30.80;;;;;;4947039;28;20057;-91
2021/04/01 14:23:45;;;;;;;5.80;2.28;;;28.20;31.20;;;;;;4940636;28;20066;-90
2021/04/01 14:30:27;;;;;;;13.73;2.70;;;28.80;29.90;;;;;;4943514;28;20154;-93
2021/04/01 14:32:59;;;;;;;5.45;2.30;;;29.70;29.80;;;;;;4974326;28;20054;-89
2021/04/01 14:35:37;;;;;;;8.63;2.60;;;29.90;29.50;;;;;;4974244;28;20046;-89
2021/04/01 14:38:13;;;;;;;8.95;2.40;;;29.40;29.50;;;;;;4973715;28;20046;-89
2021/04/01 14:44:20;;;;;;;7.25;2.70;;;29.30;29.50;;;;;;4959949;28;20054;-90
2021/04/01 14:47:11;;;;;;;4.55;2.58;;;28.80;30.00;;;;;;4973266;28;20054;-89
2021/04/01 14:50:27;;;;;;;10.43;2.63;;;29.10;29.70;;;;;;4905319;29;20112;-90
2021/04/01 14:53:11;;;;;;;7.90;3.10;;;29.30;29.00;;;;;;4960487;28;20174;-87
2021/04/01 14:55:52;;;;;;;7.57;3.00;;;28.90;29.80;;;;;;4928316;28;20057;-91
2021/04/01 14:58:31;;;;;;;7.50;2.50;;;28.80;30.00;;;;;;4953405;28;20050;-89
2021/04/01 15:01:03;;;;;;;8.30;3.10;;;28.70;30.00;;;;;;4952037;28;20052;-89
2021/04/01 15:03:38;;;;;;;6.30;2.80;;;28.40;30.50;;;;;;4953447;28;20134;-92
2021/04/01 15:06:30;;;;;;;7.32;2.90;;;28.30;31.40;;;;;;4952909;29;20055;-92
2021/04/01 15:09:16;;;;;;;10.82;3.60;;;27.80;31.90;;;;;;4941661;28;20043;-91
2021/04/01 15:11:54;;;;;;;11.13;3.08;;;27.00;32.90;;;;;;4964381;28;20090;-85
2021/04/01 15:14:21;;;;;;;12.23;3.60;;;26.10;33.70;;;;;;5005606;28;20076;-90
2021/04/01 15:16:50;;;;;;;12.73;3.40;;;25.60;35.00;;;;;;5009881;28;20077;-87
2021/04/01 15:19:41;;;;;;;9.10;3.35;;;25.20;35.70;;;;;;4952774;28;20063;-88
2021/04/01 15:22:07;;;;;;;12.07;3.22;;;24.70;35.40;;;;;;4939554;29;20051;-88
2021/04/01 15:24:45;;;;;;;12.77;3.25;;;24.40;36.80;;;;;;4954004;28;20134;-89
2021/04/01 15:30:38;;;;;;;;;;;;;;;;;;;;;
2021/04/01 15:33:09;;;;;;;7.75;3.50;;;23.40;38.20;;;;;;4952538;28;20067;-88
2021/04/01 15:35:38;;;;;;;6.03;3.45;;;23.10;38.20;;;;;;4939742;29;20047;-89
2021/04/01 15:38:13;;;;;;;21.77;3.92;;;23.00;39.30;;;;;;4997543;28;20057;-89
2021/04/01 15:41:21;;;;;;;12.07;3.30;;;23.00;40.50;;;;;;5013153;28;20046;-89
2021/04/01 15:44:14;;;;;;;12.25;3.65;;;23.00;40.10;;;;;;5022283;28;20057;-92
2021/04/01 15:47:11;;;;;;;10.00;3.53;;;22.90;41.20;;;;;;5022468;28;20418;-90
2021/04/01 15:49:37;;;;;;;9.43;3.28;;;22.60;40.70;;;;;;5038447;28;20050;-91
2021/04/01 15:52:07;;;;;;;9.00;3.70;;;22.50;41.60;;;;;;5028178;28;20056;-91
2021/04/01 15:54:38;;;;;;;6.22;3.33;;;22.40;40.40;;;;;;5007646;28;20095;-89
2021/04/01 15:57:09;;;;;;;16.50;3.45;;;22.40;40.40;;;;;;5031869;28;20042;-90